Upper Fairmount, Maryland
Current Conditions -  °F | °C
As of 6:54 AM on Wednesday 28 Jan 2015 (Local Time) from KWAL Reporting Station
Clear Clear  
Wind Chill: 12°   Ceiling: Unl
Heat Index: 23°   Visibility: 10mi
Dew Point:   Wind: 12mph
Humidity: 55%   Direction: 340°NNW
Pressure: 30.1"   Gusts: NA
Location:  38.1°N, 75.79°W
Report Text: KWAL 281154Z AUTO 34010KT 10SM CLR M05/M13 A3010 RMK AO2 SLP188 T10501128 11017 21050 53032
Loading
Personal Weather Stations






























Interactive Weather Map New forecast layout! Learn more

10-Day Weather Forecast

Advertisements
Track Severe Weather on mobile